sensor_id;sensor_type;location;lat;lon;timestamp;P1;durP1;ratioP1;P2;durP2;ratioP2
34064;SDS011;20339;49.754;20.158;2023-02-03T00:00:30;8.90;;;5.50;;
34064;SDS011;20339;49.754;20.158;2023-02-03T00:03:21;8.60;;;5.10;;
34064;SDS011;20339;49.754;20.158;2023-02-03T00:05:52;9.40;;;5.60;;
34064;SDS011;20339;49.754;20.158;2023-02-03T00:08:27;8.10;;;5.70;;
34064;SDS011;20339;49.754;20.158;2023-02-03T00:11:00;12.30;;;5.60;;
34064;SDS011;20339;49.754;20.158;2023-02-03T00:13:36;7.20;;;4.30;;
34064;SDS011;20339;49.754;20.158;2023-02-03T00:16:07;8.40;;;3.70;;
34064;SDS011;20339;49.754;20.158;2023-02-03T00:18:40;6.00;;;4.40;;
34064;SDS011;20339;49.754;20.158;2023-02-03T00:21:11;8.80;;;4.60;;
34064;SDS011;20339;49.754;20.158;2023-02-03T00:23:43;6.90;;;4.10;;
34064;SDS011;20339;49.754;20.158;2023-02-03T00:26:15;8.90;;;4.80;;
34064;SDS011;20339;49.754;20.158;2023-02-03T00:28:49;9.40;;;4.70;;
34064;SDS011;20339;49.754;20.158;2023-02-03T00:31:21;6.30;;;3.90;;
34064;SDS011;20339;49.754;20.158;2023-02-03T00:33:56;6.50;;;4.10;;
34064;SDS011;20339;49.754;20.158;2023-02-03T00:36:27;11.70;;;4.80;;
34064;SDS011;20339;49.754;20.158;2023-02-03T00:38:59;7.80;;;4.80;;
34064;SDS011;20339;49.754;20.158;2023-02-03T00:41:32;9.50;;;5.80;;
34064;SDS011;20339;49.754;20.158;2023-02-03T00:44:07;11.70;;;5.70;;
34064;SDS011;20339;49.754;20.158;2023-02-03T00:46:42;8.90;;;5.20;;
34064;SDS011;20339;49.754;20.158;2023-02-03T00:49:13;10.10;;;5.40;;
34064;SDS011;20339;49.754;20.158;2023-02-03T00:51:46;11.50;;;6.20;;
34064;SDS011;20339;49.754;20.158;2023-02-03T00:54:17;9.60;;;5.50;;
34064;SDS011;20339;49.754;20.158;2023-02-03T00:56:48;9.60;;;4.60;;
34064;SDS011;20339;49.754;20.158;2023-02-03T00:59:20;6.70;;;3.90;;
34064;SDS011;20339;49.754;20.158;2023-02-03T01:01:52;8.10;;;5.20;;
34064;SDS011;20339;49.754;20.158;2023-02-03T01:04:27;8.50;;;4.90;;
34064;SDS011;20339;49.754;20.158;2023-02-03T01:07:00;11.00;;;6.40;;
34064;SDS011;20339;49.754;20.158;2023-02-03T01:09:33;9.00;;;5.20;;
34064;SDS011;20339;49.754;20.158;2023-02-03T01:12:07;9.70;;;6.00;;
34064;SDS011;20339;49.754;20.158;2023-02-03T01:14:38;9.10;;;5.60;;
34064;SDS011;20339;49.754;20.158;2023-02-03T01:17:16;9.20;;;4.00;;
34064;SDS011;20339;49.754;20.158;2023-02-03T01:19:47;8.60;;;5.10;;
34064;SDS011;20339;49.754;20.158;2023-02-03T01:22:20;7.20;;;4.10;;
34064;SDS011;20339;49.754;20.158;2023-02-03T01:24:52;9.70;;;5.40;;
34064;SDS011;20339;49.754;20.158;2023-02-03T01:27:23;6.20;;;3.90;;
34064;SDS011;20339;49.754;20.158;2023-02-03T01:29:54;8.00;;;4.80;;
34064;SDS011;20339;49.754;20.158;2023-02-03T01:32:27;6.30;;;4.20;;
34064;SDS011;20339;49.754;20.158;2023-02-03T01:34:58;7.40;;;4.10;;
34064;SDS011;20339;49.754;20.158;2023-02-03T01:37:29;6.60;;;3.80;;
34064;SDS011;20339;49.754;20.158;2023-02-03T01:40:00;6.70;;;4.30;;
34064;SDS011;20339;49.754;20.158;2023-02-03T01:42:32;8.90;;;5.20;;
34064;SDS011;20339;49.754;20.158;2023-02-03T01:45:06;7.50;;;4.40;;
34064;SDS011;20339;49.754;20.158;2023-02-03T01:47:41;11.10;;;4.10;;
34064;SDS011;20339;49.754;20.158;2023-02-03T01:50:17;8.60;;;4.40;;
34064;SDS011;20339;49.754;20.158;2023-02-03T01:52:55;7.20;;;4.40;;
34064;SDS011;20339;49.754;20.158;2023-02-03T01:55:32;8.70;;;4.80;;
34064;SDS011;20339;49.754;20.158;2023-02-03T01:58:06;8.10;;;4.30;;
34064;SDS011;20339;49.754;20.158;2023-02-03T02:00:44;6.40;;;3.10;;
34064;SDS011;20339;49.754;20.158;2023-02-03T02:03:21;8.40;;;4.00;;
34064;SDS011;20339;49.754;20.158;2023-02-03T02:05:59;8.80;;;5.10;;
34064;SDS011;20339;49.754;20.158;2023-02-03T02:08:33;4.90;;;3.70;;
34064;SDS011;20339;49.754;20.158;2023-02-03T02:11:07;6.50;;;3.80;;
34064;SDS011;20339;49.754;20.158;2023-02-03T02:13:38;9.00;;;5.00;;
34064;SDS011;20339;49.754;20.158;2023-02-03T02:16:14;8.00;;;4.90;;
34064;SDS011;20339;49.754;20.158;2023-02-03T02:18:59;8.20;;;3.70;;
34064;SDS011;20339;49.754;20.158;2023-02-03T02:21:47;7.40;;;4.50;;
34064;SDS011;20339;49.754;20.158;2023-02-03T02:31:07;9.80;;;5.00;;
34064;SDS011;20339;49.754;20.158;2023-02-03T02:33:55;5.60;;;3.70;;
34064;SDS011;20339;49.754;20.158;2023-02-03T02:36:45;6.40;;;4.00;;
34064;SDS011;20339;49.754;20.158;2023-02-03T02:39:30;7.20;;;4.00;;
34064;SDS011;20339;49.754;20.158;2023-02-03T02:42:13;7.20;;;3.50;;
34064;SDS011;20339;49.754;20.158;2023-02-03T02:44:55;6.10;;;3.40;;
34064;SDS011;20339;49.754;20.158;2023-02-03T02:47:33;5.20;;;3.20;;
34064;SDS011;20339;49.754;20.158;2023-02-03T02:50:05;4.40;;;2.80;;
34064;SDS011;20339;49.754;20.158;2023-02-03T02:52:42;6.10;;;3.50;;
34064;SDS011;20339;49.754;20.158;2023-02-03T02:55:21;5.10;;;2.90;;
34064;SDS011;20339;49.754;20.158;2023-02-03T02:57:59;5.40;;;3.30;;
34064;SDS011;20339;49.754;20.158;2023-02-03T03:00:37;4.20;;;2.80;;
34064;SDS011;20339;49.754;20.158;2023-02-03T03:03:12;7.10;;;3.40;;
34064;SDS011;20339;49.754;20.158;2023-02-03T03:05:48;5.90;;;3.60;;
34064;SDS011;20339;49.754;20.158;2023-02-03T03:08:26;6.20;;;4.00;;
34064;SDS011;20339;49.754;20.158;2023-02-03T03:11:06;5.10;;;3.30;;
34064;SDS011;20339;49.754;20.158;2023-02-03T03:13:38;7.10;;;4.00;;
34064;SDS011;20339;49.754;20.158;2023-02-03T03:16:13;9.60;;;4.30;;
34064;SDS011;20339;49.754;20.158;2023-02-03T03:18:51;7.90;;;3.70;;
34064;SDS011;20339;49.754;20.158;2023-02-03T03:21:29;6.50;;;3.70;;
34064;SDS011;20339;49.754;20.158;2023-02-03T03:24:08;6.30;;;3.40;;
34064;SDS011;20339;49.754;20.158;2023-02-03T03:26:49;6.50;;;3.80;;
34064;SDS011;20339;49.754;20.158;2023-02-03T03:29:39;4.30;;;3.30;;
34064;SDS011;20339;49.754;20.158;2023-02-03T03:32:20;5.60;;;2.40;;
34064;SDS011;20339;49.754;20.158;2023-02-03T03:34:52;4.80;;;2.50;;
34064;SDS011;20339;49.754;20.158;2023-02-03T03:37:26;7.60;;;3.30;;
34064;SDS011;20339;49.754;20.158;2023-02-03T03:40:08;5.40;;;3.00;;
34064;SDS011;20339;49.754;20.158;2023-02-03T03:42:43;6.00;;;3.10;;
34064;SDS011;20339;49.754;20.158;2023-02-03T03:45:20;7.70;;;3.70;;
34064;SDS011;20339;49.754;20.158;2023-02-03T03:47:57;7.00;;;3.80;;
34064;SDS011;20339;49.754;20.158;2023-02-03T03:50:39;5.80;;;3.60;;
34064;SDS011;20339;49.754;20.158;2023-02-03T03:53:18;7.80;;;3.40;;
34064;SDS011;20339;49.754;20.158;2023-02-03T03:55:54;7.30;;;3.90;;
34064;SDS011;20339;49.754;20.158;2023-02-03T03:58:33;5.30;;;3.00;;
34064;SDS011;20339;49.754;20.158;2023-02-03T04:01:12;6.50;;;4.10;;
34064;SDS011;20339;49.754;20.158;2023-02-03T04:03:47;6.20;;;3.00;;
34064;SDS011;20339;49.754;20.158;2023-02-03T04:06:21;7.30;;;3.70;;
34064;SDS011;20339;49.754;20.158;2023-02-03T04:08:56;6.80;;;3.50;;
34064;SDS011;20339;49.754;20.158;2023-02-03T04:11:29;3.80;;;2.50;;
34064;SDS011;20339;49.754;20.158;2023-02-03T04:14:17;5.10;;;2.90;;
34064;SDS011;20339;49.754;20.158;2023-02-03T04:16:51;6.30;;;3.40;;
34064;SDS011;20339;49.754;20.158;2023-02-03T04:19:22;4.40;;;2.00;;
34064;SDS011;20339;49.754;20.158;2023-02-03T04:21:53;3.80;;;2.30;;
34064;SDS011;20339;49.754;20.158;2023-02-03T04:24:27;4.10;;;2.10;;
34064;SDS011;20339;49.754;20.158;2023-02-03T04:26:58;4.90;;;2.90;;
34064;SDS011;20339;49.754;20.158;2023-02-03T04:29:36;5.00;;;2.60;;
34064;SDS011;20339;49.754;20.158;2023-02-03T04:32:07;5.10;;;2.90;;
34064;SDS011;20339;49.754;20.158;2023-02-03T04:34:38;4.20;;;2.00;;
34064;SDS011;20339;49.754;20.158;2023-02-03T04:37:10;6.10;;;2.70;;
34064;SDS011;20339;49.754;20.158;2023-02-03T04:39:44;4.60;;;2.60;;
34064;SDS011;20339;49.754;20.158;2023-02-03T04:42:16;3.70;;;2.80;;
34064;SDS011;20339;49.754;20.158;2023-02-03T04:44:49;5.50;;;2.10;;
34064;SDS011;20339;49.754;20.158;2023-02-03T04:47:21;5.50;;;3.00;;
34064;SDS011;20339;49.754;20.158;2023-02-03T04:49:55;6.60;;;2.70;;
34064;SDS011;20339;49.754;20.158;2023-02-03T04:52:29;4.90;;;3.10;;
34064;SDS011;20339;49.754;20.158;2023-02-03T04:55:03;5.30;;;3.10;;
34064;SDS011;20339;49.754;20.158;2023-02-03T04:57:38;6.50;;;3.70;;
34064;SDS011;20339;49.754;20.158;2023-02-03T05:00:12;4.10;;;2.20;;
34064;SDS011;20339;49.754;20.158;2023-02-03T05:02:44;3.50;;;2.10;;
34064;SDS011;20339;49.754;20.158;2023-02-03T05:05:18;5.80;;;3.00;;
34064;SDS011;20339;49.754;20.158;2023-02-03T05:07:52;3.40;;;2.40;;
34064;SDS011;20339;49.754;20.158;2023-02-03T05:10:29;7.40;;;2.40;;
34064;SDS011;20339;49.754;20.158;2023-02-03T05:13:00;4.20;;;2.40;;
34064;SDS011;20339;49.754;20.158;2023-02-03T05:15:33;5.40;;;2.40;;
34064;SDS011;20339;49.754;20.158;2023-02-03T05:18:04;4.20;;;2.70;;
34064;SDS011;20339;49.754;20.158;2023-02-03T05:20:35;3.90;;;2.70;;
34064;SDS011;20339;49.754;20.158;2023-02-03T05:23:11;5.30;;;3.50;;
34064;SDS011;20339;49.754;20.158;2023-02-03T05:25:43;7.40;;;3.80;;
34064;SDS011;20339;49.754;20.158;2023-02-03T05:28:18;4.70;;;2.60;;
34064;SDS011;20339;49.754;20.158;2023-02-03T05:30:49;5.30;;;3.50;;
34064;SDS011;20339;49.754;20.158;2023-02-03T05:33:21;5.40;;;2.50;;
34064;SDS011;20339;49.754;20.158;2023-02-03T05:35:52;5.40;;;3.00;;
34064;SDS011;20339;49.754;20.158;2023-02-03T05:38:24;5.10;;;3.00;;
34064;SDS011;20339;49.754;20.158;2023-02-03T05:40:56;4.20;;;2.80;;
34064;SDS011;20339;49.754;20.158;2023-02-03T05:43:53;5.30;;;3.20;;
34064;SDS011;20339;49.754;20.158;2023-02-03T05:46:27;3.90;;;2.70;;
34064;SDS011;20339;49.754;20.158;2023-02-03T05:49:00;5.50;;;2.80;;
34064;SDS011;20339;49.754;20.158;2023-02-03T05:51:33;6.60;;;3.80;;
34064;SDS011;20339;49.754;20.158;2023-02-03T05:54:05;7.90;;;4.00;;
34064;SDS011;20339;49.754;20.158;2023-02-03T05:56:37;3.90;;;2.50;;
34064;SDS011;20339;49.754;20.158;2023-02-03T05:59:08;5.70;;;3.00;;
34064;SDS011;20339;49.754;20.158;2023-02-03T06:01:41;5.60;;;4.10;;
34064;SDS011;20339;49.754;20.158;2023-02-03T06:04:14;4.10;;;2.20;;
34064;SDS011;20339;49.754;20.158;2023-02-03T06:06:46;4.80;;;3.20;;
34064;SDS011;20339;49.754;20.158;2023-02-03T06:09:17;6.50;;;3.10;;
34064;SDS011;20339;49.754;20.158;2023-02-03T06:11:48;5.90;;;3.00;;
34064;SDS011;20339;49.754;20.158;2023-02-03T06:14:20;5.50;;;3.00;;
34064;SDS011;20339;49.754;20.158;2023-02-03T06:17:04;5.30;;;3.20;;
34064;SDS011;20339;49.754;20.158;2023-02-03T06:19:35;5.10;;;3.80;;
34064;SDS011;20339;49.754;20.158;2023-02-03T06:22:07;6.30;;;3.00;;
34064;SDS011;20339;49.754;20.158;2023-02-03T06:24:39;8.70;;;4.70;;
34064;SDS011;20339;49.754;20.158;2023-02-03T06:27:11;9.30;;;4.80;;
34064;SDS011;20339;49.754;20.158;2023-02-03T06:29:42;10.00;;;5.20;;
34064;SDS011;20339;49.754;20.158;2023-02-03T06:32:19;8.60;;;4.30;;
34064;SDS011;20339;49.754;20.158;2023-02-03T06:34:50;4.60;;;3.20;;
34064;SDS011;20339;49.754;20.158;2023-02-03T06:37:23;6.00;;;4.30;;
34064;SDS011;20339;49.754;20.158;2023-02-03T06:39:55;6.60;;;3.70;;
34064;SDS011;20339;49.754;20.158;2023-02-03T06:42:26;6.70;;;3.20;;
34064;SDS011;20339;49.754;20.158;2023-02-03T06:44:58;8.10;;;3.50;;
34064;SDS011;20339;49.754;20.158;2023-02-03T06:47:31;5.40;;;3.10;;
34064;SDS011;20339;49.754;20.158;2023-02-03T06:50:03;6.30;;;3.80;;
34064;SDS011;20339;49.754;20.158;2023-02-03T06:52:35;6.40;;;3.30;;
34064;SDS011;20339;49.754;20.158;2023-02-03T06:55:09;7.20;;;3.80;;
34064;SDS011;20339;49.754;20.158;2023-02-03T06:57:44;6.00;;;3.20;;
34064;SDS011;20339;49.754;20.158;2023-02-03T07:00:16;8.50;;;4.20;;
34064;SDS011;20339;49.754;20.158;2023-02-03T07:02:54;5.90;;;3.70;;
34064;SDS011;20339;49.754;20.158;2023-02-03T07:05:27;7.80;;;3.50;;
34064;SDS011;20339;49.754;20.158;2023-02-03T07:08:00;8.90;;;4.30;;
34064;SDS011;20339;49.754;20.158;2023-02-03T07:10:32;6.80;;;3.70;;
34064;SDS011;20339;49.754;20.158;2023-02-03T07:13:04;7.30;;;3.90;;
34064;SDS011;20339;49.754;20.158;2023-02-03T07:15:38;8.10;;;3.80;;
34064;SDS011;20339;49.754;20.158;2023-02-03T07:18:09;8.00;;;4.90;;
34064;SDS011;20339;49.754;20.158;2023-02-03T07:20:40;6.20;;;3.90;;
34064;SDS011;20339;49.754;20.158;2023-02-03T07:23:14;4.20;;;3.00;;
34064;SDS011;20339;49.754;20.158;2023-02-03T07:25:45;8.90;;;4.40;;
34064;SDS011;20339;49.754;20.158;2023-02-03T07:28:16;6.30;;;3.00;;
34064;SDS011;20339;49.754;20.158;2023-02-03T07:30:48;8.30;;;4.80;;
34064;SDS011;20339;49.754;20.158;2023-02-03T07:33:21;7.50;;;3.90;;
34064;SDS011;20339;49.754;20.158;2023-02-03T07:35:52;6.40;;;3.20;;
34064;SDS011;20339;49.754;20.158;2023-02-03T07:38:24;11.40;;;5.30;;
34064;SDS011;20339;49.754;20.158;2023-02-03T07:40:58;14.60;;;6.50;;
34064;SDS011;20339;49.754;20.158;2023-02-03T07:43:30;17.50;;;8.20;;
34064;SDS011;20339;49.754;20.158;2023-02-03T07:46:03;11.00;;;5.00;;
34064;SDS011;20339;49.754;20.158;2023-02-03T07:48:37;9.00;;;4.00;;
34064;SDS011;20339;49.754;20.158;2023-02-03T07:51:08;9.70;;;4.90;;
34064;SDS011;20339;49.754;20.158;2023-02-03T07:53:39;8.70;;;4.80;;
34064;SDS011;20339;49.754;20.158;2023-02-03T07:56:15;8.10;;;4.80;;
34064;SDS011;20339;49.754;20.158;2023-02-03T07:58:46;8.20;;;4.40;;
34064;SDS011;20339;49.754;20.158;2023-02-03T08:01:21;7.20;;;3.80;;
34064;SDS011;20339;49.754;20.158;2023-02-03T08:03:53;8.10;;;4.20;;
34064;SDS011;20339;49.754;20.158;2023-02-03T08:06:25;4.70;;;2.80;;
34064;SDS011;20339;49.754;20.158;2023-02-03T08:09:01;4.90;;;2.70;;
34064;SDS011;20339;49.754;20.158;2023-02-03T08:11:35;9.20;;;4.50;;
34064;SDS011;20339;49.754;20.158;2023-02-03T08:14:07;7.50;;;3.90;;
34064;SDS011;20339;49.754;20.158;2023-02-03T08:16:38;7.00;;;4.10;;
34064;SDS011;20339;49.754;20.158;2023-02-03T08:19:13;8.60;;;4.90;;
34064;SDS011;20339;49.754;20.158;2023-02-03T08:21:47;7.60;;;3.80;;
34064;SDS011;20339;49.754;20.158;2023-02-03T08:24:24;5.10;;;3.20;;
34064;SDS011;20339;49.754;20.158;2023-02-03T08:26:55;7.60;;;4.00;;
34064;SDS011;20339;49.754;20.158;2023-02-03T08:29:31;9.40;;;4.20;;
34064;SDS011;20339;49.754;20.158;2023-02-03T08:32:02;9.10;;;3.90;;
34064;SDS011;20339;49.754;20.158;2023-02-03T08:34:39;6.80;;;4.60;;
34064;SDS011;20339;49.754;20.158;2023-02-03T08:37:10;8.60;;;3.60;;
34064;SDS011;20339;49.754;20.158;2023-02-03T08:39:43;7.30;;;4.30;;
34064;SDS011;20339;49.754;20.158;2023-02-03T08:42:15;8.40;;;4.50;;
34064;SDS011;20339;49.754;20.158;2023-02-03T08:44:46;8.30;;;3.50;;
34064;SDS011;20339;49.754;20.158;2023-02-03T08:47:17;7.70;;;4.60;;
34064;SDS011;20339;49.754;20.158;2023-02-03T08:49:48;8.80;;;4.40;;
34064;SDS011;20339;49.754;20.158;2023-02-03T08:52:23;8.40;;;3.80;;
34064;SDS011;20339;49.754;20.158;2023-02-03T08:54:56;9.20;;;4.40;;
34064;SDS011;20339;49.754;20.158;2023-02-03T08:57:31;7.60;;;4.00;;
34064;SDS011;20339;49.754;20.158;2023-02-03T09:00:04;6.50;;;3.60;;
34064;SDS011;20339;49.754;20.158;2023-02-03T09:02:38;7.80;;;4.70;;
34064;SDS011;20339;49.754;20.158;2023-02-03T09:05:10;9.20;;;4.00;;
34064;SDS011;20339;49.754;20.158;2023-02-03T09:07:43;6.70;;;3.70;;
34064;SDS011;20339;49.754;20.158;2023-02-03T09:10:17;6.40;;;2.90;;
34064;SDS011;20339;49.754;20.158;2023-02-03T09:12:50;9.10;;;3.90;;
34064;SDS011;20339;49.754;20.158;2023-02-03T09:15:22;7.00;;;3.60;;
34064;SDS011;20339;49.754;20.158;2023-02-03T09:17:53;7.30;;;4.00;;
34064;SDS011;20339;49.754;20.158;2023-02-03T09:20:32;7.10;;;3.40;;
34064;SDS011;20339;49.754;20.158;2023-02-03T09:23:03;5.10;;;2.60;;
34064;SDS011;20339;49.754;20.158;2023-02-03T09:25:34;5.20;;;3.30;;
34064;SDS011;20339;49.754;20.158;2023-02-03T09:28:09;8.80;;;3.60;;
34064;SDS011;20339;49.754;20.158;2023-02-03T09:30:40;6.60;;;3.40;;
34064;SDS011;20339;49.754;20.158;2023-02-03T09:33:11;7.20;;;3.80;;
34064;SDS011;20339;49.754;20.158;2023-02-03T09:35:51;7.10;;;3.30;;
34064;SDS011;20339;49.754;20.158;2023-02-03T09:38:24;5.60;;;3.00;;
34064;SDS011;20339;49.754;20.158;2023-02-03T09:40:58;6.30;;;3.30;;
34064;SDS011;20339;49.754;20.158;2023-02-03T09:43:33;10.20;;;4.30;;
34064;SDS011;20339;49.754;20.158;2023-02-03T09:46:15;7.90;;;4.00;;
34064;SDS011;20339;49.754;20.158;2023-02-03T09:48:50;8.00;;;4.00;;
34064;SDS011;20339;49.754;20.158;2023-02-03T09:51:33;7.00;;;4.00;;
34064;SDS011;20339;49.754;20.158;2023-02-03T09:54:11;8.10;;;4.60;;
34064;SDS011;20339;49.754;20.158;2023-02-03T09:56:48;8.00;;;4.80;;
34064;SDS011;20339;49.754;20.158;2023-02-03T09:59:24;8.40;;;4.70;;
34064;SDS011;20339;49.754;20.158;2023-02-03T10:02:06;7.60;;;4.20;;
34064;SDS011;20339;49.754;20.158;2023-02-03T10:04:53;10.10;;;4.50;;
34064;SDS011;20339;49.754;20.158;2023-02-03T10:07:41;8.00;;;3.90;;
34064;SDS011;20339;49.754;20.158;2023-02-03T10:10:20;9.50;;;4.10;;
34064;SDS011;20339;49.754;20.158;2023-02-03T10:13:05;8.90;;;4.60;;
34064;SDS011;20339;49.754;20.158;2023-02-03T10:15:50;7.10;;;3.70;;
34064;SDS011;20339;49.754;20.158;2023-02-03T10:18:38;7.30;;;3.90;;
34064;SDS011;20339;49.754;20.158;2023-02-03T10:21:22;8.20;;;3.20;;
34064;SDS011;20339;49.754;20.158;2023-02-03T10:24:09;7.20;;;3.70;;
34064;SDS011;20339;49.754;20.158;2023-02-03T10:26:46;8.10;;;4.10;;
34064;SDS011;20339;49.754;20.158;2023-02-03T10:29:19;4.30;;;2.50;;
34064;SDS011;20339;49.754;20.158;2023-02-03T10:31:55;6.50;;;3.50;;
34064;SDS011;20339;49.754;20.158;2023-02-03T10:34:33;5.40;;;2.30;;
34064;SDS011;20339;49.754;20.158;2023-02-03T10:37:09;9.90;;;5.30;;
34064;SDS011;20339;49.754;20.158;2023-02-03T10:39:52;6.80;;;4.10;;
34064;SDS011;20339;49.754;20.158;2023-02-03T10:42:29;14.40;;;7.20;;
34064;SDS011;20339;49.754;20.158;2023-02-03T10:45:16;8.10;;;3.90;;
34064;SDS011;20339;49.754;20.158;2023-02-03T10:47:49;7.10;;;3.60;;
34064;SDS011;20339;49.754;20.158;2023-02-03T10:50:25;7.40;;;4.40;;
34064;SDS011;20339;49.754;20.158;2023-02-03T10:53:19;5.70;;;3.10;;
34064;SDS011;20339;49.754;20.158;2023-02-03T10:56:02;5.60;;;2.80;;
34064;SDS011;20339;49.754;20.158;2023-02-03T10:58:46;7.70;;;4.20;;
34064;SDS011;20339;49.754;20.158;2023-02-03T11:01:22;3.00;;;1.70;;
34064;SDS011;20339;49.754;20.158;2023-02-03T11:04:19;5.00;;;2.70;;
34064;SDS011;20339;49.754;20.158;2023-02-03T11:06:55;6.40;;;3.30;;
34064;SDS011;20339;49.754;20.158;2023-02-03T11:09:34;4.80;;;2.70;;
34064;SDS011;20339;49.754;20.158;2023-02-03T11:12:12;5.20;;;3.00;;
34064;SDS011;20339;49.754;20.158;2023-02-03T11:14:50;5.80;;;3.00;;
34064;SDS011;20339;49.754;20.158;2023-02-03T11:17:25;7.60;;;3.70;;
34064;SDS011;20339;49.754;20.158;2023-02-03T11:20:00;4.80;;;2.40;;
34064;SDS011;20339;49.754;20.158;2023-02-03T11:22:55;3.70;;;2.40;;
34064;SDS011;20339;49.754;20.158;2023-02-03T11:25:31;5.30;;;2.10;;
34064;SDS011;20339;49.754;20.158;2023-02-03T11:28:04;4.60;;;2.80;;
34064;SDS011;20339;49.754;20.158;2023-02-03T11:30:41;2.60;;;1.60;;
34064;SDS011;20339;49.754;20.158;2023-02-03T11:33:25;4.20;;;2.50;;
34064;SDS011;20339;49.754;20.158;2023-02-03T11:36:05;2.70;;;2.10;;
34064;SDS011;20339;49.754;20.158;2023-02-03T11:38:45;2.50;;;1.60;;
34064;SDS011;20339;49.754;20.158;2023-02-03T11:41:21;3.70;;;1.70;;
34064;SDS011;20339;49.754;20.158;2023-02-03T11:43:53;3.10;;;1.80;;
34064;SDS011;20339;49.754;20.158;2023-02-03T11:46:28;5.00;;;1.70;;
34064;SDS011;20339;49.754;20.158;2023-02-03T11:49:12;8.00;;;2.60;;
34064;SDS011;20339;49.754;20.158;2023-02-03T11:52:21;3.50;;;1.80;;
34064;SDS011;20339;49.754;20.158;2023-02-03T11:55:19;3.70;;;2.10;;
34064;SDS011;20339;49.754;20.158;2023-02-03T11:58:03;2.60;;;1.90;;
34064;SDS011;20339;49.754;20.158;2023-02-03T12:01:11;2.80;;;2.00;;
34064;SDS011;20339;49.754;20.158;2023-02-03T12:07:29;3.50;;;2.90;;
34064;SDS011;20339;49.754;20.158;2023-02-03T12:10:26;3.20;;;2.00;;
34064;SDS011;20339;49.754;20.158;2023-02-03T12:13:06;4.90;;;2.00;;
34064;SDS011;20339;49.754;20.158;2023-02-03T12:15:56;2.90;;;2.00;;
34064;SDS011;20339;49.754;20.158;2023-02-03T12:18:43;3.20;;;2.40;;
34064;SDS011;20339;49.754;20.158;2023-02-03T12:21:30;3.10;;;2.10;;
34064;SDS011;20339;49.754;20.158;2023-02-03T12:26:56;3.40;;;1.40;;
34064;SDS011;20339;49.754;20.158;2023-02-03T12:29:40;3.90;;;2.60;;
34064;SDS011;20339;49.754;20.158;2023-02-03T12:32:18;4.50;;;2.40;;
34064;SDS011;20339;49.754;20.158;2023-02-03T12:34:58;4.70;;;2.70;;
34064;SDS011;20339;49.754;20.158;2023-02-03T12:37:47;6.30;;;3.20;;
34064;SDS011;20339;49.754;20.158;2023-02-03T12:40:28;2.90;;;2.20;;
34064;SDS011;20339;49.754;20.158;2023-02-03T12:43:20;3.60;;;1.70;;
34064;SDS011;20339;49.754;20.158;2023-02-03T12:46:08;4.60;;;2.20;;
34064;SDS011;20339;49.754;20.158;2023-02-03T12:48:49;4.60;;;2.00;;
34064;SDS011;20339;49.754;20.158;2023-02-03T12:51:28;4.00;;;2.40;;
34064;SDS011;20339;49.754;20.158;2023-02-03T12:56:54;2.60;;;2.10;;
34064;SDS011;20339;49.754;20.158;2023-02-03T12:59:32;2.90;;;1.80;;
34064;SDS011;20339;49.754;20.158;2023-02-03T13:02:13;2.60;;;1.80;;
34064;SDS011;20339;49.754;20.158;2023-02-03T13:04:52;4.20;;;2.10;;
34064;SDS011;20339;49.754;20.158;2023-02-03T13:07:29;4.20;;;2.20;;
34064;SDS011;20339;49.754;20.158;2023-02-03T13:10:16;3.20;;;2.40;;
34064;SDS011;20339;49.754;20.158;2023-02-03T13:12:54;4.30;;;2.30;;
34064;SDS011;20339;49.754;20.158;2023-02-03T13:15:33;3.40;;;2.30;;
34064;SDS011;20339;49.754;20.158;2023-02-03T13:18:12;4.10;;;1.90;;
34064;SDS011;20339;49.754;20.158;2023-02-03T13:20:55;4.30;;;2.50;;
34064;SDS011;20339;49.754;20.158;2023-02-03T13:23:27;5.20;;;2.80;;
34064;SDS011;20339;49.754;20.158;2023-02-03T13:26:14;4.00;;;2.10;;
34064;SDS011;20339;49.754;20.158;2023-02-03T13:31:40;5.60;;;2.80;;
34064;SDS011;20339;49.754;20.158;2023-02-03T13:34:30;3.20;;;2.20;;
34064;SDS011;20339;49.754;20.158;2023-02-03T13:37:15;4.10;;;2.40;;
34064;SDS011;20339;49.754;20.158;2023-02-03T13:40:01;4.10;;;2.50;;
34064;SDS011;20339;49.754;20.158;2023-02-03T13:42:45;4.40;;;2.50;;
34064;SDS011;20339;49.754;20.158;2023-02-03T13:45:23;5.70;;;2.60;;
34064;SDS011;20339;49.754;20.158;2023-02-03T13:48:06;4.60;;;3.30;;
34064;SDS011;20339;49.754;20.158;2023-02-03T13:50:46;4.30;;;3.10;;
34064;SDS011;20339;49.754;20.158;2023-02-03T13:53:23;5.40;;;3.00;;
34064;SDS011;20339;49.754;20.158;2023-02-03T13:56:01;5.10;;;2.40;;
34064;SDS011;20339;49.754;20.158;2023-02-03T13:58:35;4.00;;;2.60;;
34064;SDS011;20339;49.754;20.158;2023-02-03T14:04:03;5.40;;;3.20;;
34064;SDS011;20339;49.754;20.158;2023-02-03T14:07:02;5.80;;;3.00;;
34064;SDS011;20339;49.754;20.158;2023-02-03T14:10:08;5.10;;;2.40;;
34064;SDS011;20339;49.754;20.158;2023-02-03T14:12:56;4.00;;;3.00;;
34064;SDS011;20339;49.754;20.158;2023-02-03T14:15:30;4.80;;;2.80;;
34064;SDS011;20339;49.754;20.158;2023-02-03T14:21:10;4.90;;;3.20;;
34064;SDS011;20339;49.754;20.158;2023-02-03T14:23:58;5.10;;;3.60;;
34064;SDS011;20339;49.754;20.158;2023-02-03T14:26:39;5.80;;;3.50;;
34064;SDS011;20339;49.754;20.158;2023-02-03T14:29:24;6.80;;;3.20;;
34064;SDS011;20339;49.754;20.158;2023-02-03T14:31:57;7.10;;;4.20;;
34064;SDS011;20339;49.754;20.158;2023-02-03T14:34:36;5.10;;;3.10;;
34064;SDS011;20339;49.754;20.158;2023-02-03T14:37:16;6.00;;;3.40;;
34064;SDS011;20339;49.754;20.158;2023-02-03T14:43:13;4.90;;;3.40;;
34064;SDS011;20339;49.754;20.158;2023-02-03T14:49:03;4.20;;;2.80;;
34064;SDS011;20339;49.754;20.158;2023-02-03T14:55:02;3.60;;;2.90;;
34064;SDS011;20339;49.754;20.158;2023-02-03T14:57:51;5.40;;;4.00;;
34064;SDS011;20339;49.754;20.158;2023-02-03T15:00:27;5.10;;;2.80;;
34064;SDS011;20339;49.754;20.158;2023-02-03T15:03:15;4.80;;;2.60;;
34064;SDS011;20339;49.754;20.158;2023-02-03T15:05:53;3.00;;;2.30;;
34064;SDS011;20339;49.754;20.158;2023-02-03T15:11:24;2.90;;;2.20;;
34064;SDS011;20339;49.754;20.158;2023-02-03T15:14:18;5.50;;;3.20;;
34064;SDS011;20339;49.754;20.158;2023-02-03T15:16:57;3.80;;;2.40;;
34064;SDS011;20339;49.754;20.158;2023-02-03T15:19:33;4.40;;;2.30;;
34064;SDS011;20339;49.754;20.158;2023-02-03T15:22:18;5.50;;;2.50;;
34064;SDS011;20339;49.754;20.158;2023-02-03T15:24:51;5.50;;;2.70;;
34064;SDS011;20339;49.754;20.158;2023-02-03T15:27:24;3.90;;;2.70;;
34064;SDS011;20339;49.754;20.158;2023-02-03T15:29:59;4.70;;;2.70;;
34064;SDS011;20339;49.754;20.158;2023-02-03T15:33:32;6.40;;;3.80;;
34064;SDS011;20339;49.754;20.158;2023-02-03T15:36:13;6.30;;;3.00;;
34064;SDS011;20339;49.754;20.158;2023-02-03T15:38:51;8.40;;;3.40;;
34064;SDS011;20339;49.754;20.158;2023-02-03T15:41:28;4.60;;;2.90;;
34064;SDS011;20339;49.754;20.158;2023-02-03T15:44:01;7.50;;;4.10;;
34064;SDS011;20339;49.754;20.158;2023-02-03T15:46:41;8.10;;;3.90;;
34064;SDS011;20339;49.754;20.158;2023-02-03T15:49:23;6.20;;;3.40;;
34064;SDS011;20339;49.754;20.158;2023-02-03T15:52:02;5.70;;;3.80;;
34064;SDS011;20339;49.754;20.158;2023-02-03T15:54:38;9.00;;;5.00;;
34064;SDS011;20339;49.754;20.158;2023-02-03T15:57:16;6.90;;;4.20;;
34064;SDS011;20339;49.754;20.158;2023-02-03T15:59:51;6.20;;;3.60;;
34064;SDS011;20339;49.754;20.158;2023-02-03T16:02:27;6.50;;;4.00;;
34064;SDS011;20339;49.754;20.158;2023-02-03T16:05:05;6.20;;;3.40;;
34064;SDS011;20339;49.754;20.158;2023-02-03T16:07:52;4.70;;;2.30;;